Time;durP1;ratioP1;P1;durP2;ratioP2;P2;SDS_P1;SDS_P2;PMS_P1;PMS_P2;Temp;Humidity;BMP_temperature;BMP_pressure;BME280_temperature;BME280_humidity;BME280_pressure;Samples;Min_cycle;Max_cycle;Signal;HPM_P1;HPM_P2
2022/04/28 00:02:25;;;;;;;4.93;3.17;;;;;;;6.66;63.72;96539.56;10333606;28;97049;-67
2022/04/28 00:07:28;;;;;;;4.85;3.20;;;;;;;6.53;63.85;96539.66;10337725;28;97448;-68
2022/04/28 00:12:32;;;;;;;4.22;3.40;;;;;;;6.46;63.62;96539.28;10345712;28;99325;-67
2022/04/28 00:17:36;;;;;;;5.57;3.70;;;;;;;6.21;65.70;96544.66;10353365;28;97138;-67
2022/04/28 00:22:39;;;;;;;4.63;3.50;;;;;;;6.06;66.56;96544.00;10337089;28;96914;-68
2022/04/28 00:27:42;;;;;;;5.38;3.75;;;;;;;6.06;67.31;96544.00;10338512;28;97099;-68
2022/04/28 00:32:46;;;;;;;5.55;3.22;;;;;;;5.97;67.49;96536.91;10333001;28;98685;-67
2022/04/28 00:37:49;;;;;;;4.90;3.65;;;;;;;6.02;66.37;96546.00;10335212;28;99495;-68
2022/04/28 00:43:18;;;;;;;6.63;3.90;;;;;;;5.82;67.73;96544.03;10333557;28;98745;-67
2022/04/28 00:53:43;;;;;;;5.10;3.70;;;;;;;5.82;67.64;96544.84;10330214;28;98587;-67
2022/04/28 00:58:49;;;;;;;4.88;3.00;;;;;;;5.80;67.37;96541.53;10337226;28;96976;-68
2022/04/28 01:03:53;;;;;;;5.25;3.38;;;;;;;5.67;67.69;96551.97;10333867;28;97747;-68
2022/04/28 01:08:57;;;;;;;6.28;3.78;;;;;;;5.59;68.33;96548.28;10328519;28;99706;-68
2022/04/28 01:14:00;;;;;;;6.47;3.67;;;;;;;5.52;68.98;96547.88;10344512;28;97110;-67
2022/04/28 01:19:04;;;;;;;5.80;3.22;;;;;;;5.58;67.89;96559.56;10337066;28;98608;-68
2022/04/28 01:24:08;;;;;;;6.65;3.10;;;;;;;5.57;67.26;96550.16;10330703;28;99053;-68
2022/04/28 01:29:11;;;;;;;5.53;3.53;;;;;;;5.56;67.78;96554.50;10332695;28;98722;-67
2022/04/28 01:34:14;;;;;;;5.07;3.90;;;;;;;5.51;67.90;96551.41;10332758;28;98228;-67
2022/04/28 01:39:19;;;;;;;5.30;3.72;;;;;;;5.51;67.75;96551.41;10336026;28;98814;-68
2022/04/28 01:44:22;;;;;;;7.30;4.88;;;;;;;5.34;68.56;96556.03;10335174;28;99455;-67
2022/04/28 01:49:25;;;;;;;6.72;4.10;;;;;;;5.17;70.02;96553.78;10331436;28;97817;-68
2022/04/28 01:59:50;;;;;;;5.20;3.70;;;;;;;5.14;68.55;96552.22;10342762;28;98599;-68
2022/04/28 02:04:58;;;;;;;5.53;3.88;;;;;;;5.09;69.19;96567.25;10339202;28;100425;-68
2022/04/28 02:10:04;;;;;;;10.27;6.53;;;;;;;4.92;70.31;96565.84;10340411;28;97172;-68
2022/04/28 02:15:08;;;;;;;8.30;5.75;;;;;;;4.88;70.10;96573.91;10342891;28;96928;-68
2022/04/28 02:20:12;;;;;;;10.85;7.22;;;;;;;4.80;70.55;96577.00;10339385;28;96802;-67
2022/04/28 02:25:16;;;;;;;10.02;7.22;;;;;;;4.70;71.49;96581.16;10335484;28;98936;-68
2022/04/28 02:30:19;;;;;;;6.18;4.97;;;;;;;4.56;72.05;96585.50;10335789;28;97968;-67
2022/04/28 02:35:21;;;;;;;6.45;4.65;;;;;;;4.57;72.09;96586.31;10339977;28;100834;-67
2022/04/28 02:40:26;;;;;;;8.82;5.05;;;;;;;4.55;72.16;96580.41;10333314;28;96990;-68
2022/04/28 02:45:29;;;;;;;9.73;4.90;;;;;;;4.51;72.20;96579.78;10350233;28;96874;-67
2022/04/28 02:50:32;;;;;;;6.22;4.05;;;;;;;4.48;73.42;96582.56;10346423;28;98682;-68
2022/04/28 02:55:36;;;;;;;6.07;4.60;;;;;;;4.50;72.95;96591.06;10334526;28;97145;-67
2022/04/28 03:00:39;;;;;;;9.27;4.00;;;;;;;4.46;72.93;96581.03;10333986;28;97788;-68
2022/04/28 03:11:13;;;;;;;6.85;4.63;;;;;;;4.42;72.89;96585.59;10178898;28;97060;-67
2022/04/28 03:16:17;;;;;;;7.95;4.70;;;;;;;4.33;73.67;96589.59;10190069;28;97921;-67
2022/04/28 03:21:20;;;;;;;6.00;4.70;;;;;;;4.21;74.36;96577.44;10173803;28;97885;-68
2022/04/28 03:26:25;;;;;;;6.03;4.40;;;;;;;4.25;73.99;96585.88;10173124;28;99376;-67
2022/04/28 03:31:27;;;;;;;4.80;3.95;;;;;;;4.30;73.34;96578.59;10179341;28;97135;-67
2022/04/28 03:41:52;;;;;;;5.18;3.55;;;;;;;4.31;72.83;96590.63;10169231;28;98615;-67
2022/04/28 03:46:55;;;;;;;5.85;4.22;;;;;;;4.26;73.01;96587.50;10295928;28;98871;-67
2022/04/28 03:51:59;;;;;;;5.90;4.15;;;;;;;4.23;73.06;96585.09;10345025;28;98484;-68
2022/04/28 03:57:03;;;;;;;5.88;4.43;;;;;;;4.19;73.48;96597.41;10335213;28;96943;-68
2022/04/28 04:02:06;;;;;;;5.57;4.07;;;;;;;4.05;73.93;96600.88;10335949;28;96945;-67
2022/04/28 04:07:10;;;;;;;5.72;4.35;;;;;;;3.92;74.26;96592.28;10352051;28;97230;-67
2022/04/28 04:12:15;;;;;;;5.78;4.13;;;;;;;3.80;74.96;96606.81;10338937;28;98643;-67
2022/04/28 04:17:18;;;;;;;6.18;4.43;;;;;;;3.77;74.17;96604.41;10339260;28;97525;-68
2022/04/28 04:22:20;;;;;;;7.90;5.13;;;;;;;3.79;74.99;96605.94;10338424;28;97182;-68
2022/04/28 04:27:24;;;;;;;6.68;4.47;;;;;;;3.86;73.67;96619.31;10336057;28;98467;-67
2022/04/28 04:32:27;;;;;;;6.18;4.90;;;;;;;3.87;74.16;96615.81;10343639;28;97614;-67
2022/04/28 04:37:30;;;;;;;5.85;4.05;;;;;;;3.90;73.60;96619.97;10334238;28;97856;-67
2022/04/28 04:42:34;;;;;;;6.45;4.32;;;;;;;3.81;74.96;96629.97;10340221;28;98721;-67
2022/04/28 04:47:38;;;;;;;6.20;4.38;;;;;;;3.66;74.80;96630.06;10341135;28;98507;-67
2022/04/28 04:52:41;;;;;;;6.28;4.60;;;;;;;3.65;75.51;96634.41;10342074;28;98709;-67
2022/04/28 04:57:45;;;;;;;5.82;4.72;;;;;;;3.76;75.05;96647.53;10339500;28;101877;-68
2022/04/28 05:02:48;;;;;;;5.85;3.70;;;;;;;3.85;74.33;96651.28;10347188;28;98716;-67
2022/04/28 05:07:51;;;;;;;7.50;4.30;;;;;;;3.96;74.39;96650.59;10339522;28;98601;-68
2022/04/28 05:12:55;;;;;;;5.60;4.00;;;;;;;4.03;73.84;96649.28;10341237;28;100078;-67
2022/04/28 05:17:58;;;;;;;7.57;4.43;;;;;;;4.12;73.59;96658.22;10337342;28;98917;-67
2022/04/28 05:23:03;;;;;;;6.70;4.40;;;;;;;4.16;72.58;96665.69;10344386;28;96844;-67
2022/04/28 05:28:08;;;;;;;6.72;4.78;;;;;;;4.30;73.28;96669.97;10349568;28;97142;-67
2022/04/28 05:33:12;;;;;;;7.90;5.63;;;;;;;4.40;73.19;96667.59;10351238;28;97738;-67
2022/04/28 05:38:15;;;;;;;9.43;6.28;;;;;;;4.57;73.41;96675.09;10347452;28;97110;-68
2022/04/28 05:48:37;;;;;;;15.02;5.82;;;;;;;4.92;73.55;96694.44;10180622;28;98994;-67
2022/04/28 05:53:44;;;;;;;9.93;4.47;;;;;;;5.13;72.24;96700.78;10174844;28;98026;-67
2022/04/28 05:58:48;;;;;;;8.77;4.40;;;;;;;5.16;71.84;96691.97;10173991;28;99252;-68
2022/04/28 06:03:50;;;;;;;7.93;5.43;;;;;;;5.28;72.09;96704.09;10179568;28;97987;-68
2022/04/28 06:08:53;;;;;;;8.52;4.75;;;;;;;5.44;71.66;96705.66;10176541;28;98935;-67
2022/04/28 06:13:59;;;;;;;8.57;4.70;;;;;;;5.57;70.82;96708.25;10168152;28;99081;-67
2022/04/28 06:19:02;;;;;;;7.63;4.70;;;;;;;5.70;70.70;96717.66;10178208;28;98140;-67
2022/04/28 06:24:05;;;;;;;9.95;4.75;;;;;;;5.85;70.18;96710.56;10229556;28;98478;-67
2022/04/28 06:29:09;;;;;;;6.50;5.10;;;;;;;6.05;69.57;96716.13;10336883;28;98580;-67
2022/04/28 06:34:12;;;;;;;6.50;5.05;;;;;;;6.24;69.60;96721.69;10339771;28;98720;-67
2022/04/28 06:39:15;;;;;;;9.70;6.25;;;;;;;6.47;70.38;96720.03;10342670;28;96904;-67
2022/04/28 06:44:19;;;;;;;6.72;5.03;;;;;;;6.64;69.53;96712.78;10340685;28;98708;-68
2022/04/28 06:49:22;;;;;;;7.97;5.18;;;;;;;6.82;69.08;96721.81;10342463;28;96836;-67
2022/04/28 06:54:25;;;;;;;7.65;5.72;;;;;;;6.97;69.13;96724.25;10357331;28;96850;-67
2022/04/28 06:59:32;;;;;;;13.13;5.70;;;;;;;7.12;69.06;96730.91;10348510;28;98630;-67
2022/04/28 07:04:35;;;;;;;9.02;6.63;;;;;;;7.27;69.98;96730.72;10348111;28;96840;-68
2022/04/28 07:09:39;;;;;;;8.32;6.20;;;;;;;7.53;70.11;96727.00;10350745;28;96799;-68
2022/04/28 07:15:03;;;;;;;7.43;5.40;;;;;;;7.73;70.04;96728.03;10356922;28;97127;-67
2022/04/28 07:20:08;;;;;;;9.38;5.57;;;;;;;7.80;69.09;96733.59;10349855;28;97165;-67
2022/04/28 07:25:11;;;;;;;6.80;4.93;;;;;;;7.80;69.21;96733.59;10337275;28;96947;-67
2022/04/28 07:30:16;;;;;;;9.77;6.40;;;;;;;7.98;69.28;96732.19;10338867;28;96811;-67
2022/04/28 07:35:21;;;;;;;6.25;5.03;;;;;;;8.10;68.71;96724.34;10337072;28;97089;-68
2022/04/28 07:40:24;;;;;;;8.38;5.97;;;;;;;8.22;68.10;96732.97;10336300;28;96992;-67
2022/04/28 07:45:28;;;;;;;7.07;5.68;;;;;;;8.42;68.47;96731.41;10338753;28;98332;-68
2022/04/28 07:50:32;;;;;;;7.22;5.68;;;;;;;8.60;68.06;96737.75;10337444;28;97055;-67
2022/04/28 07:55:34;;;;;;;8.10;5.93;;;;;;;8.76;68.10;96744.31;10339742;28;99442;-67
2022/04/28 08:00:39;;;;;;;7.18;6.30;;;;;;;8.97;67.66;96749.56;10345727;28;97109;-67
2022/04/28 08:05:42;;;;;;;6.70;5.90;;;;;;;9.18;67.15;96741.78;10344903;28;96858;-68
2022/04/28 08:10:45;;;;;;;8.45;6.15;;;;;;;9.38;66.95;96747.94;10340470;28;97132;-68
2022/04/28 08:15:49;;;;;;;9.02;5.40;;;;;;;9.47;66.94;96749.81;10356061;28;97826;-68
2022/04/28 08:20:52;;;;;;;9.47;6.73;;;;;;;9.80;66.63;96751.38;10343854;28;96845;-67
2022/04/28 08:25:55;;;;;;;6.93;5.55;;;;;;;10.02;66.69;96742.53;10339642;28;96767;-68
2022/04/28 08:30:59;;;;;;;7.20;6.20;;;;;;;10.18;66.28;96744.66;10341575;28;96763;-68
2022/04/28 08:36:02;;;;;;;9.40;6.50;;;;;;;10.53;65.67;96740.75;10343105;28;96893;-68
2022/04/28 08:41:10;;;;;;;8.68;6.60;;;;;;;10.66;65.10;96750.94;10343104;28;97746;-68
2022/04/28 08:51:38;;;;;;;7.95;6.22;;;;;;;10.89;64.62;96756.72;10342136;28;96973;-68
2022/04/28 08:56:42;;;;;;;7.80;6.32;;;;;;;11.06;64.22;96754.41;10342207;28;96882;-68
2022/04/28 09:01:46;;;;;;;8.32;7.35;;;;;;;11.11;64.22;96739.94;10355595;28;96865;-68
2022/04/28 09:06:51;;;;;;;8.32;6.78;;;;;;;11.20;63.88;96743.50;10356752;28;97020;-68
2022/04/28 09:11:59;;;;;;;8.57;6.60;;;;;;;11.29;64.08;96736.63;10342055;28;96749;-68
2022/04/28 09:17:05;;;;;;;7.88;6.60;;;;;;;11.43;63.79;96738.00;10340695;28;96830;-68
2022/04/28 09:22:12;;;;;;;9.15;6.65;;;;;;;11.58;63.71;96741.00;10337762;28;100149;-68
2022/04/28 09:27:15;;;;;;;9.00;6.85;;;;;;;11.80;63.19;96738.06;10341677;28;96851;-68
2022/04/28 09:32:21;;;;;;;7.35;6.30;;;;;;;11.91;63.18;96740.47;10341333;28;97053;-68
2022/04/28 09:37:44;;;;;;;8.02;6.75;;;;;;;12.09;62.72;96740.56;10347277;28;96881;-68
2022/04/28 09:42:47;;;;;;;7.47;6.25;;;;;;;12.20;62.23;96731.69;10352386;28;96917;-68
2022/04/28 09:48:01;;;;;;;8.10;6.63;;;;;;;12.32;62.44;96734.94;10346119;28;97764;-68
2022/04/28 09:53:05;;;;;;;8.30;7.28;;;;;;;12.44;61.77;96733.75;10361446;28;97268;-68
2022/04/28 09:58:09;;;;;;;8.83;7.07;;;;;;;12.43;61.86;96734.72;10339207;28;96974;-68
2022/04/28 10:03:15;;;;;;;7.78;6.35;;;;;;;12.56;62.02;96737.00;10341006;28;97793;-68
2022/04/28 10:08:19;;;;;;;10.23;7.13;;;;;;;12.68;60.94;96741.06;10339565;28;96699;-68
2022/04/28 10:13:23;;;;;;;9.65;6.78;;;;;;;12.78;61.57;96725.25;10336361;28;96838;-68
2022/04/28 10:18:32;;;;;;;8.30;7.40;;;;;;;12.92;61.21;96733.59;10347914;28;97040;-68
2022/04/28 10:34:25;;;;;;;8.77;7.40;;;;;;;13.40;60.44;96729.72;10342317;28;96932;-68
2022/04/28 10:39:38;;;;;;;8.25;6.90;;;;;;;13.52;60.33;96723.25;10349080;28;98227;-68
2022/04/28 10:44:51;;;;;;;10.02;8.00;;;;;;;13.57;59.44;96720.16;10347840;28;96864;-69
2022/04/28 10:49:56;;;;;;;8.40;6.85;;;;;;;13.63;60.25;96725.59;10343288;28;100333;-68
2022/04/28 10:55:01;;;;;;;9.25;6.68;;;;;;;13.77;59.98;96720.75;10344397;28;96780;-68
2022/04/28 11:00:04;;;;;;;;;;;;;;;13.84;59.87;96719.16;10345910;28;96932;-68
2022/04/28 11:05:30;;;;;;;7.60;6.80;;;;;;;13.99;59.66;96722.03;10345146;28;97383;-68
2022/04/28 11:11:09;;;;;;;8.70;7.20;;;;;;;14.19;58.35;96715.56;10342367;28;96843;-68
2022/04/28 11:16:13;;;;;;;10.93;7.63;;;;;;;14.27;57.82;96717.38;10357568;28;97087;-68
2022/04/28 11:21:20;;;;;;;7.25;6.55;;;;;;;14.32;57.23;96714.31;10347273;28;98873;-68
2022/04/28 11:26:26;;;;;;;8.57;6.35;;;;;;;14.46;57.94;96712.88;10344779;28;97157;-68
2022/04/28 11:31:29;;;;;;;7.68;6.28;;;;;;;14.69;56.72;96708.63;10341191;28;96963;-68
2022/04/28 11:36:34;;;;;;;6.43;5.60;;;;;;;14.83;56.16;96706.38;10347833;28;97714;-68
2022/04/28 11:41:40;;;;;;;8.40;6.15;;;;;;;14.71;55.27;96708.47;10345397;28;96781;-68
2022/04/28 11:46:53;;;;;;;5.63;4.90;;;;;;;14.92;55.15;96706.22;10340642;28;96835;-68
2022/04/28 11:51:57;;;;;;;5.32;4.47;;;;;;;15.31;54.88;96704.72;10355097;28;96840;-68
2022/04/28 11:57:10;;;;;;;6.97;4.82;;;;;;;15.45;54.83;96690.06;10346335;28;96818;-68
2022/04/28 12:02:25;;;;;;;5.95;5.07;;;;;;;15.70;54.34;96701.38;10343562;28;96831;-68
2022/04/28 12:07:30;;;;;;;;;;;;;;;15.83;54.66;96692.97;10340616;28;96956;-68
2022/04/28 12:23:33;;;;;;;4.72;3.47;;;;;;;15.87;52.97;96692.44;10257028;28;97742;-68
2022/04/28 12:28:38;;;;;;;6.13;3.78;;;;;;;16.11;52.38;96690.72;10254090;28;96856;-68
2022/04/28 12:33:42;;;;;;;6.50;4.03;;;;;;;16.22;51.47;96698.28;10256553;28;96937;-68
2022/04/28 12:38:51;;;;;;;5.32;3.70;;;;;;;16.44;52.48;96696.66;10256901;28;97372;-68
2022/04/28 12:43:57;;;;;;;4.32;3.55;;;;;;;16.79;51.67;96688.41;10252212;28;96955;-68
2022/04/28 12:49:03;;;;;;;5.78;3.88;;;;;;;17.10;50.45;96685.69;10254374;28;96984;-69
2022/04/28 12:54:13;;;;;;;7.57;3.65;;;;;;;17.08;50.84;96676.31;10342640;28;97010;-68
2022/04/28 12:59:21;;;;;;;5.70;3.58;;;;;;;17.29;50.28;96676.44;10341935;28;97839;-68
2022/04/28 13:04:26;;;;;;;6.45;3.28;;;;;;;17.55;49.46;96677.88;10337699;28;97649;-69
2022/04/28 13:09:31;;;;;;;3.63;3.13;;;;;;;17.63;48.39;96666.38;10341858;28;98030;-69
2022/04/28 13:14:34;;;;;;;3.95;3.30;;;;;;;17.81;48.01;96671.31;10343478;28;96742;-69
2022/04/28 13:19:37;;;;;;;3.35;2.88;;;;;;;18.05;48.03;96657.03;10339084;28;96755;-69
2022/04/28 13:24:42;;;;;;;3.83;3.00;;;;;;;18.13;48.15;96660.38;10341825;28;96785;-68
2022/04/28 13:29:46;;;;;;;4.53;3.25;;;;;;;18.20;47.43;96649.06;10341474;28;96969;-69
2022/04/28 13:34:49;;;;;;;2.13;1.90;;;;;;;18.11;45.49;96651.78;10337113;28;97373;-68
2022/04/28 13:39:53;;;;;;;2.40;2.20;;;;;;;17.79;44.41;96652.16;10340215;28;96842;-69
2022/04/28 13:44:57;;;;;;;3.40;2.15;;;;;;;17.95;43.47;96641.44;10340978;28;96832;-69
2022/04/28 13:50:00;;;;;;;3.42;2.55;;;;;;;17.98;42.91;96646.38;10343168;28;97997;-69
2022/04/28 13:55:04;;;;;;;3.42;2.33;;;;;;;18.08;43.86;96631.03;10345973;28;96901;-69
2022/04/28 14:00:09;;;;;;;2.50;2.03;;;;;;;18.20;42.80;96633.19;10347988;28;99846;-69
2022/04/28 14:05:13;;;;;;;3.80;2.50;;;;;;;18.53;42.40;96628.25;10347604;28;97049;-69
2022/04/28 14:10:17;;;;;;;;;;;;;;;19.04;43.17;96619.38;10344887;28;96785;-69
2022/04/28 14:15:21;;;;;;;3.03;2.30;;;;;;;19.48;41.63;96615.59;10348092;28;96854;-69
2022/04/28 14:20:24;;;;;;;3.97;2.55;;;;;;;19.56;42.31;96618.13;10347507;28;96896;-69
2022/04/28 14:25:29;;;;;;;2.78;2.10;;;;;;;20.09;40.39;96611.44;10342081;28;96948;-69
2022/04/28 14:30:32;;;;;;;5.47;2.40;;;;;;;20.40;40.41;96613.59;10348951;28;96765;-69
2022/04/28 14:35:35;;;;;;;1.95;1.55;;;;;;;20.74;38.69;96609.19;10347034;28;96865;-69
2022/04/28 14:40:39;;;;;;;2.83;1.88;;;;;;;21.31;36.24;96599.78;10342787;28;96714;-69
2022/04/28 14:45:43;;;;;;;2.47;1.67;;;;;;;21.85;36.41;96603.16;10346575;28;96964;-70
2022/04/28 14:56:08;;;;;;;1.90;1.70;;;;;;;22.28;34.95;96592.94;10345014;28;96968;-67
2022/04/28 15:01:15;;;;;;;3.92;1.60;;;;;;;22.45;35.65;96596.72;10342582;28;96890;-68
2022/04/28 15:06:18;;;;;;;2.22;1.63;;;;;;;22.58;35.35;96594.00;10348385;28;96754;-68
2022/04/28 15:11:23;;;;;;;2.55;1.75;;;;;;;22.61;35.20;96587.44;10346681;28;101720;-67
2022/04/28 15:16:26;;;;;;;3.13;1.70;;;;;;;22.79;34.84;96578.72;10340377;28;98416;-67
2022/04/28 15:21:29;;;;;;;2.40;1.87;;;;;;;22.93;35.08;96582.09;10345478;28;97814;-68
2022/04/28 15:26:34;;;;;;;3.20;1.70;;;;;;;22.83;34.50;96573.78;10345395;28;97285;-67
2022/04/28 15:31:38;;;;;;;2.28;1.60;;;;;;;23.01;34.33;96581.78;10341371;28;96837;-67
2022/04/28 15:36:42;;;;;;;3.03;1.45;;;;;;;23.08;33.49;96576.41;10344449;28;97246;-67
2022/04/28 15:41:47;;;;;;;1.67;1.58;;;;;;;23.26;33.19;96584.47;10344742;28;96872;-68
2022/04/28 15:46:50;;;;;;;3.03;1.75;;;;;;;23.41;32.99;96575.31;10341892;28;97010;-67
2022/04/28 15:51:53;;;;;;;2.42;1.50;;;;;;;23.40;32.43;96573.72;10344624;28;97299;-67
2022/04/28 15:56:57;;;;;;;3.27;1.43;;;;;;;23.38;31.74;96563.25;10344283;28;96855;-67
2022/04/28 16:02:00;;;;;;;2.10;1.45;;;;;;;23.36;31.50;96568.81;10342401;28;98673;-68
2022/04/28 16:07:04;;;;;;;;;;;;;;;23.61;32.37;96565.25;10363983;28;97697;-68
2022/04/28 16:12:10;;;;;;;1.60;1.38;;;;;;;23.90;31.96;96568.22;10369589;28;97088;-68
2022/04/28 16:17:12;;;;;;;2.20;1.73;;;;;;;24.37;32.02;96568.44;10351769;28;96852;-68
2022/04/28 16:22:16;;;;;;;3.97;1.70;;;;;;;24.60;31.31;96566.88;10338567;28;97148;-68
2022/04/28 16:27:27;;;;;;;2.03;1.58;;;;;;;25.32;29.56;96569.44;10360719;28;97136;-68
2022/04/28 16:32:33;;;;;;;1.42;1.20;;;;;;;25.69;28.61;96568.38;10359487;28;96957;-68
2022/04/28 16:37:36;;;;;;;1.40;1.20;;;;;;;26.08;27.67;96568.59;10368265;28;97023;-68
2022/04/28 16:42:41;;;;;;;1.40;1.13;;;;;;;26.15;27.38;96572.78;10368299;28;97725;-68
2022/04/28 16:47:44;;;;;;;1.40;1.10;;;;;;;26.48;27.19;96563.19;10364830;28;96877;-68
2022/04/28 16:52:47;;;;;;;2.80;1.40;;;;;;;26.41;26.91;96570.59;10338491;28;97383;-68
2022/04/28 16:57:52;;;;;;;1.40;1.08;;;;;;;26.82;26.77;96575.84;10352899;28;97034;-68
2022/04/28 17:08:35;;;;;;;1.45;1.30;;;;;;;26.42;25.85;96577.56;10343462;28;96781;-68
2022/04/28 17:13:40;;;;;;;2.97;1.40;;;;;;;26.08;25.96;96587.34;10337192;28;97013;-68
2022/04/28 17:18:42;;;;;;;2.63;1.52;;;;;;;25.84;26.85;96587.41;10341364;28;97038;-68
2022/04/28 17:23:46;;;;;;;2.50;1.30;;;;;;;25.70;26.98;96580.69;10340021;28;96885;-67
2022/04/28 17:28:50;;;;;;;1.42;1.20;;;;;;;25.24;27.75;96583.16;10358758;28;97050;-68
2022/04/28 17:33:53;;;;;;;1.63;1.40;;;;;;;25.07;28.22;96593.69;10345576;28;96883;-68
2022/04/28 17:38:57;;;;;;;2.83;1.60;;;;;;;24.24;29.92;96600.66;10345209;28;97083;-67
2022/04/28 17:44:03;;;;;;;;;;;;;;;22.63;31.79;96606.69;10353083;28;96906;-68
2022/04/28 17:49:06;;;;;;;1.90;1.40;;;;;;;21.01;33.55;96599.38;10336410;28;96873;-67
2022/04/28 17:54:15;;;;;;;2.80;1.70;;;;;;;19.94;35.04;96615.06;10341273;28;96789;-67
2022/04/28 18:04:41;;;;;;;7.50;5.13;;;;;;;18.59;37.09;96621.41;10336098;28;96882;-67
2022/04/28 18:09:45;;;;;;;5.32;3.08;;;;;;;18.04;37.70;96624.47;10340366;28;97398;-67
2022/04/28 18:14:49;;;;;;;3.38;2.70;;;;;;;17.55;38.25;96630.31;10340602;28;97017;-67
2022/04/28 18:19:52;;;;;;;5.80;3.38;;;;;;;17.17;39.28;96633.81;10337431;28;96858;-67
2022/04/28 18:24:56;;;;;;;3.65;2.03;;;;;;;16.81;38.85;96634.47;10341153;28;97257;-67
2022/04/28 18:30:06;;;;;;;3.40;2.03;;;;;;;16.47;39.33;96637.50;10340599;28;97002;-67
2022/04/28 18:35:09;;;;;;;3.22;1.48;;;;;;;16.20;39.07;96644.06;10342132;28;100495;-66
2022/04/28 18:45:34;;;;;;;2.83;2.00;;;;;;;15.68;39.43;96655.97;10362691;28;96944;-67
2022/04/28 18:50:37;;;;;;;2.92;1.80;;;;;;;15.46;39.31;96665.38;10348184;28;96841;-67
2022/04/28 18:55:43;;;;;;;3.25;2.00;;;;;;;15.13;39.81;96676.78;10355983;28;100476;-67
2022/04/28 19:00:47;;;;;;;2.42;1.40;;;;;;;14.89;40.34;96674.97;10350289;28;96874;-66
2022/04/28 19:05:50;;;;;;;2.53;1.20;;;;;;;14.74;38.19;96687.94;10351088;28;96973;-66
2022/04/28 19:10:53;;;;;;;2.13;1.23;;;;;;;14.59;39.03;96689.56;10352171;28;99781;-66
2022/04/28 19:15:58;;;;;;;1.73;1.30;;;;;;;14.47;39.07;96685.59;10347319;28;97070;-66
2022/04/28 19:21:02;;;;;;;2.63;1.30;;;;;;;14.35;38.91;96680.66;10356297;28;96834;-66
2022/04/28 19:26:06;;;;;;;2.60;1.67;;;;;;;14.23;38.22;96681.06;10360712;28;99500;-66
2022/04/28 19:31:10;;;;;;;5.07;3.00;;;;;;;14.15;38.13;96693.19;10354573;28;99357;-66
2022/04/28 19:36:14;;;;;;;5.20;1.75;;;;;;;14.14;38.25;96699.44;10349300;28;97201;-66
2022/04/28 19:41:17;;;;;;;3.55;2.67;;;;;;;14.17;37.25;96706.16;10354657;28;98554;-66
2022/04/28 19:46:22;;;;;;;4.72;1.88;;;;;;;14.19;36.08;96701.56;10351704;28;98838;-66
2022/04/28 19:51:25;;;;;;;4.07;2.55;;;;;;;14.17;36.15;96712.25;10363435;28;98709;-66
2022/04/28 19:56:28;;;;;;;4.05;2.40;;;;;;;14.17;36.43;96711.44;10362975;28;97053;-66
2022/04/28 20:01:33;;;;;;;4.75;2.90;;;;;;;14.17;36.50;96716.69;10349889;28;98851;-66
2022/04/28 20:06:36;;;;;;;3.13;1.80;;;;;;;14.12;36.76;96711.91;10339564;28;97900;-66
2022/04/28 20:11:42;;;;;;;1.98;1.27;;;;;;;14.09;37.33;96714.84;10340220;28;96802;-66
2022/04/28 20:16:46;;;;;;;2.22;1.10;;;;;;;14.09;37.43;96716.63;10370033;28;98140;-66
2022/04/28 20:21:49;;;;;;;1.43;1.10;;;;;;;14.02;38.64;96713.00;10359605;28;97007;-66
2022/04/28 20:26:53;;;;;;;2.38;1.50;;;;;;;13.98;38.71;96729.09;10338039;28;96738;-66
2022/04/28 20:31:59;;;;;;;1.90;1.45;;;;;;;13.95;38.85;96732.03;10345161;28;98226;-66
2022/04/28 20:37:02;;;;;;;1.30;1.10;;;;;;;14.02;39.07;96734.00;10341018;28;96896;-66
2022/04/28 20:42:11;;;;;;;1.50;1.30;;;;;;;14.04;39.45;96742.56;10346786;28;97013;-66
2022/04/28 20:47:15;;;;;;;1.45;1.08;;;;;;;14.08;38.67;96749.16;10354281;28;100489;-66
2022/04/28 20:52:18;;;;;;;3.45;1.65;;;;;;;14.18;38.95;96753.31;10354813;28;97034;-66
2022/04/28 20:57:22;;;;;;;2.45;1.38;;;;;;;14.19;40.08;96754.13;10340740;28;96836;-66
2022/04/28 21:02:26;;;;;;;3.35;1.50;;;;;;;14.15;40.10;96753.63;10343912;28;100896;-66
2022/04/28 21:07:29;;;;;;;1.13;1.02;;;;;;;14.20;39.54;96755.78;10351818;28;96962;-66
2022/04/28 21:12:33;;;;;;;3.55;1.63;;;;;;;14.14;39.76;96756.41;10347268;28;97749;-66
2022/04/28 21:17:40;;;;;;;2.38;1.55;;;;;;;14.08;39.98;96759.66;10344175;28;99172;-66
2022/04/28 21:22:44;;;;;;;1.60;1.25;;;;;;;14.04;40.00;96760.94;10357787;28;98561;-66
2022/04/28 21:27:47;;;;;;;2.28;1.30;;;;;;;13.96;39.58;96765.19;10362957;28;97753;-66
2022/04/28 21:32:52;;;;;;;1.70;1.10;;;;;;;13.92;40.01;96771.75;10356107;28;98039;-66
2022/04/28 21:37:54;;;;;;;1.48;1.13;;;;;;;13.82;40.66;96773.66;10363216;28;96859;-66
2022/04/28 21:42:58;;;;;;;1.75;1.10;;;;;;;13.70;41.05;96767.00;10346709;28;98194;-66
2022/04/28 21:48:02;;;;;;;1.85;1.30;;;;;;;13.62;40.60;96776.47;10353860;28;96945;-66
2022/04/28 21:53:06;;;;;;;1.75;1.20;;;;;;;13.56;40.72;96771.81;10356001;28;98515;-66
2022/04/28 21:58:09;;;;;;;1.13;1.00;;;;;;;13.45;41.30;96774.72;10364134;28;98189;-66
2022/04/28 22:11:11;;;;;;;2.20;1.30;;;;;;;13.35;41.78;96774.78;10362437;28;96822;-66
2022/04/28 22:13:57;;;;;;;6.40;2.20;;;;;;;12.91;43.03;96779.97;10353070;28;100314;-66
2022/04/28 22:19:01;;;;;;;3.30;1.92;;;;;;;12.73;43.67;96779.91;10358116;28;99958;-69
2022/04/28 22:24:05;;;;;;;9.10;5.67;;;;;;;12.57;44.79;96785.81;10351363;28;98699;-66
2022/04/28 22:29:08;;;;;;;6.43;3.13;;;;;;;12.40;44.77;96790.03;10342770;28;97734;-66
2022/04/28 22:34:12;;;;;;;2.55;2.00;;;;;;;12.04;46.78;96797.78;10350521;28;98529;-65
2022/04/28 22:39:15;;;;;;;6.50;3.23;;;;;;;11.73;47.76;96805.03;10355431;28;97074;-66
2022/04/28 22:44:18;;;;;;;2.75;1.98;;;;;;;11.57;47.45;96812.63;10360933;28;96760;-65
2022/04/28 22:49:22;;;;;;;2.72;1.90;;;;;;;11.41;47.55;96813.19;10357605;28;96841;-65
2022/04/28 22:54:25;;;;;;;3.90;1.85;;;;;;;11.29;47.83;96807.25;10354412;28;96886;-66
2022/04/28 22:59:28;;;;;;;14.13;9.75;;;;;;;11.17;48.15;96817.00;10341408;28;97159;-64
2022/04/28 23:04:33;;;;;;;2.40;1.73;;;;;;;10.87;49.51;96820.56;10336070;28;96916;-66
2022/04/28 23:09:36;;;;;;;;;;;;;;;10.42;49.37;96822.63;10362273;28;97028;-65
2022/04/28 23:14:39;;;;;;;2.75;1.55;;;;;;;10.19;49.96;96826.41;10350145;28;96862;-65
2022/04/28 23:19:44;;;;;;;2.72;1.77;;;;;;;10.18;50.11;96829.97;10352854;28;100700;-66
2022/04/28 23:24:46;;;;;;;3.50;1.80;;;;;;;10.11;50.13;96837.50;10346998;28;96862;-66
2022/04/28 23:29:49;;;;;;;2.20;1.58;;;;;;;10.05;50.52;96835.41;10352271;28;97035;-66
2022/04/28 23:40:14;;;;;;;3.35;1.85;;;;;;;9.84;51.27;96838.88;10352622;28;97243;-66
2022/04/28 23:45:16;;;;;;;3.08;2.13;;;;;;;9.73;51.99;96838.97;10357846;28;97247;-66
2022/04/28 23:50:24;;;;;;;2.30;1.85;;;;;;;9.67;51.79;96831.63;10351078;28;96784;-66
2022/04/28 23:55:27;;;;;;;2.88;2.13;;;;;;;9.44;52.44;96836.16;10351698;28;96988;-66
